KAPG/APG METAR and TAF weather

Enter ICAO airport designator
Station Type Date Time Source
KAPG METAR 2021/02/24 16:58 UTC NOAA

KAPG 241658Z 21011KT 8SM SCT150 12/01 A3006 RMK AO2A SLPNO T01150007 $


Station Type Date Time Source
KAPG Decoded METAR 2021/02/24 16:58 UTC NOAA

Phillips Army Air Field / Aberdeen, MD, United States (KAPG) 39-28N 076-10W
Feb 24, 2021 - 11:58 AM EST / 2021.02.24 1658 UTC
Wind: from the SSW (210 degrees) at 13 MPH (11 KT):0
Visibility: 8 mile(s):0
Sky conditions: partly cloudy
Temperature: 52.7 F (11.5 C)
Dew Point: 33.3 F (0.7 C)
Relative Humidity: 47%
Pressure (altimeter): 30.06 in. Hg (1017 hPa)
ob: KAPG 241658Z 21011KT 8SM SCT150 12/01 A3006 RMK AO2A SLPNO T01150007
cycle: 17

Station Type Date Time Source
KAPG TAF UTC NOAA

Error!

Example: see airport list